sensor_id;sensor_type;location;lat;lon;timestamp;P1;durP1;ratioP1;P2;durP2;ratioP2
40449;SDS011;41787;53.570;10.032;2022-08-27T00:00:19;21.27;;;10.43;;
40449;SDS011;41787;53.570;10.032;2022-08-27T00:02:46;23.23;;;11.32;;
40449;SDS011;41787;53.570;10.032;2022-08-27T00:05:13;19.08;;;10.27;;
40449;SDS011;41787;53.570;10.032;2022-08-27T00:07:39;21.23;;;10.75;;
40449;SDS011;41787;53.570;10.032;2022-08-27T00:10:07;17.60;;;10.45;;
40449;SDS011;41787;53.570;10.032;2022-08-27T00:12:33;16.38;;;7.78;;
40449;SDS011;41787;53.570;10.032;2022-08-27T00:14:59;12.35;;;7.22;;
40449;SDS011;41787;53.570;10.032;2022-08-27T00:17:25;21.95;;;10.93;;
40449;SDS011;41787;53.570;10.032;2022-08-27T00:19:52;23.40;;;11.23;;
40449;SDS011;41787;53.570;10.032;2022-08-27T00:22:18;15.85;;;8.27;;
40449;SDS011;41787;53.570;10.032;2022-08-27T00:24:44;10.40;;;6.30;;
40449;SDS011;41787;53.570;10.032;2022-08-27T00:27:10;21.13;;;9.25;;
40449;SDS011;41787;53.570;10.032;2022-08-27T00:29:36;23.15;;;9.80;;
40449;SDS011;41787;53.570;10.032;2022-08-27T00:32:02;18.80;;;7.28;;
40449;SDS011;41787;53.570;10.032;2022-08-27T00:34:28;29.35;;;11.43;;
40449;SDS011;41787;53.570;10.032;2022-08-27T00:36:55;22.20;;;11.05;;
40449;SDS011;41787;53.570;10.032;2022-08-27T00:39:21;20.77;;;10.32;;
40449;SDS011;41787;53.570;10.032;2022-08-27T00:41:47;10.57;;;7.13;;
40449;SDS011;41787;53.570;10.032;2022-08-27T00:44:14;20.38;;;9.82;;
40449;SDS011;41787;53.570;10.032;2022-08-27T00:51:59;19.02;;;12.32;;
40449;SDS011;41787;53.570;10.032;2022-08-27T00:54:26;20.85;;;11.93;;
40449;SDS011;41787;53.570;10.032;2022-08-27T00:56:52;18.70;;;10.63;;
40449;SDS011;41787;53.570;10.032;2022-08-27T00:59:20;20.42;;;11.07;;
40449;SDS011;41787;53.570;10.032;2022-08-27T01:01:46;32.80;;;13.80;;
40449;SDS011;41787;53.570;10.032;2022-08-27T01:04:31;18.38;;;9.02;;
40449;SDS011;41787;53.570;10.032;2022-08-27T01:06:57;20.05;;;11.43;;
40449;SDS011;41787;53.570;10.032;2022-08-27T01:09:24;24.67;;;11.90;;
40449;SDS011;41787;53.570;10.032;2022-08-27T01:11:50;19.38;;;10.18;;
40449;SDS011;41787;53.570;10.032;2022-08-27T01:14:17;21.08;;;10.00;;
40449;SDS011;41787;53.570;10.032;2022-08-27T01:16:49;17.98;;;7.45;;
40449;SDS011;41787;53.570;10.032;2022-08-27T01:20:00;21.00;;;9.85;;
40449;SDS011;41787;53.570;10.032;2022-08-27T01:22:10;28.97;;;13.17;;
40449;SDS011;41787;53.570;10.032;2022-08-27T01:24:39;21.77;;;10.23;;
40449;SDS011;41787;53.570;10.032;2022-08-27T01:27:07;27.10;;;10.38;;
40449;SDS011;41787;53.570;10.032;2022-08-27T01:29:35;22.27;;;10.35;;
40449;SDS011;41787;53.570;10.032;2022-08-27T01:32:06;32.63;;;13.07;;
40449;SDS011;41787;53.570;10.032;2022-08-27T01:34:33;29.75;;;13.38;;
40449;SDS011;41787;53.570;10.032;2022-08-27T01:37:00;28.58;;;12.40;;
40449;SDS011;41787;53.570;10.032;2022-08-27T01:39:26;30.83;;;15.30;;
40449;SDS011;41787;53.570;10.032;2022-08-27T01:41:52;29.38;;;13.02;;
40449;SDS011;41787;53.570;10.032;2022-08-27T01:44:17;29.77;;;12.68;;
40449;SDS011;41787;53.570;10.032;2022-08-27T01:46:43;26.45;;;11.70;;
40449;SDS011;41787;53.570;10.032;2022-08-27T01:49:09;22.95;;;10.63;;
40449;SDS011;41787;53.570;10.032;2022-08-27T01:51:35;23.60;;;12.95;;
40449;SDS011;41787;53.570;10.032;2022-08-27T01:54:01;20.40;;;7.65;;
40449;SDS011;41787;53.570;10.032;2022-08-27T01:56:28;30.67;;;14.23;;
40449;SDS011;41787;53.570;10.032;2022-08-27T01:58:54;27.10;;;12.55;;
40449;SDS011;41787;53.570;10.032;2022-08-27T02:01:19;32.88;;;14.32;;
40449;SDS011;41787;53.570;10.032;2022-08-27T02:03:45;14.05;;;6.30;;
40449;SDS011;41787;53.570;10.032;2022-08-27T02:06:12;26.38;;;10.38;;
40449;SDS011;41787;53.570;10.032;2022-08-27T02:08:38;43.97;;;16.10;;
40449;SDS011;41787;53.570;10.032;2022-08-27T02:11:05;35.90;;;14.95;;
40449;SDS011;41787;53.570;10.032;2022-08-27T02:13:32;26.77;;;12.75;;
40449;SDS011;41787;53.570;10.032;2022-08-27T02:15:58;25.50;;;12.02;;
40449;SDS011;41787;53.570;10.032;2022-08-27T02:18:24;34.65;;;13.80;;
40449;SDS011;41787;53.570;10.032;2022-08-27T02:20:50;41.47;;;14.40;;
40449;SDS011;41787;53.570;10.032;2022-08-27T02:23:16;27.42;;;12.73;;
40449;SDS011;41787;53.570;10.032;2022-08-27T02:25:42;32.33;;;12.77;;
40449;SDS011;41787;53.570;10.032;2022-08-27T02:28:11;33.15;;;12.85;;
40449;SDS011;41787;53.570;10.032;2022-08-27T02:30:37;29.75;;;7.75;;
40449;SDS011;41787;53.570;10.032;2022-08-27T02:33:03;24.13;;;9.43;;
40449;SDS011;41787;53.570;10.032;2022-08-27T02:35:30;32.60;;;13.07;;
40449;SDS011;41787;53.570;10.032;2022-08-27T02:37:56;32.88;;;12.88;;
40449;SDS011;41787;53.570;10.032;2022-08-27T02:40:22;29.90;;;11.88;;
40449;SDS011;41787;53.570;10.032;2022-08-27T02:42:49;22.75;;;10.90;;
40449;SDS011;41787;53.570;10.032;2022-08-27T02:45:15;32.38;;;12.43;;
40449;SDS011;41787;53.570;10.032;2022-08-27T02:47:41;25.65;;;10.10;;
40449;SDS011;41787;53.570;10.032;2022-08-27T02:50:08;24.98;;;11.65;;
40449;SDS011;41787;53.570;10.032;2022-08-27T02:52:34;24.83;;;11.75;;
40449;SDS011;41787;53.570;10.032;2022-08-27T02:55:01;25.85;;;12.57;;
40449;SDS011;41787;53.570;10.032;2022-08-27T02:57:27;28.83;;;12.73;;
40449;SDS011;41787;53.570;10.032;2022-08-27T02:59:55;24.25;;;10.48;;
40449;SDS011;41787;53.570;10.032;2022-08-27T03:02:21;36.70;;;13.80;;
40449;SDS011;41787;53.570;10.032;2022-08-27T03:04:47;18.52;;;8.65;;
40449;SDS011;41787;53.570;10.032;2022-08-27T03:07:13;26.85;;;11.90;;
40449;SDS011;41787;53.570;10.032;2022-08-27T03:09:39;31.38;;;12.05;;
40449;SDS011;41787;53.570;10.032;2022-08-27T03:12:05;24.67;;;12.63;;
40449;SDS011;41787;53.570;10.032;2022-08-27T03:14:31;29.02;;;13.18;;
40449;SDS011;41787;53.570;10.032;2022-08-27T03:16:57;29.25;;;11.80;;
40449;SDS011;41787;53.570;10.032;2022-08-27T03:19:43;23.95;;;8.13;;
40449;SDS011;41787;53.570;10.032;2022-08-27T03:22:10;13.82;;;6.72;;
40449;SDS011;41787;53.570;10.032;2022-08-27T03:24:36;18.70;;;9.40;;
40449;SDS011;41787;53.570;10.032;2022-08-27T03:27:04;26.08;;;12.30;;
40449;SDS011;41787;53.570;10.032;2022-08-27T03:29:30;30.13;;;12.05;;
40449;SDS011;41787;53.570;10.032;2022-08-27T03:31:59;24.15;;;10.52;;
40449;SDS011;41787;53.570;10.032;2022-08-27T03:34:25;20.45;;;9.52;;
40449;SDS011;41787;53.570;10.032;2022-08-27T03:36:51;31.45;;;12.70;;
40449;SDS011;41787;53.570;10.032;2022-08-27T03:39:16;27.63;;;12.20;;
40449;SDS011;41787;53.570;10.032;2022-08-27T03:41:43;23.45;;;11.82;;
40449;SDS011;41787;53.570;10.032;2022-08-27T03:44:09;21.63;;;10.50;;
40449;SDS011;41787;53.570;10.032;2022-08-27T03:46:35;20.00;;;8.43;;
40449;SDS011;41787;53.570;10.032;2022-08-27T03:49:02;33.70;;;14.02;;
40449;SDS011;41787;53.570;10.032;2022-08-27T03:51:28;31.45;;;14.40;;
40449;SDS011;41787;53.570;10.032;2022-08-27T03:53:53;22.70;;;12.07;;
40449;SDS011;41787;53.570;10.032;2022-08-27T03:56:19;29.77;;;13.02;;
40449;SDS011;41787;53.570;10.032;2022-08-27T03:58:46;22.33;;;9.07;;
40449;SDS011;41787;53.570;10.032;2022-08-27T04:01:12;20.85;;;10.10;;
40449;SDS011;41787;53.570;10.032;2022-08-27T04:03:38;30.20;;;14.23;;
40449;SDS011;41787;53.570;10.032;2022-08-27T04:06:04;33.22;;;14.30;;
40449;SDS011;41787;53.570;10.032;2022-08-27T04:08:30;31.70;;;13.43;;
40449;SDS011;41787;53.570;10.032;2022-08-27T04:10:56;28.45;;;12.95;;
40449;SDS011;41787;53.570;10.032;2022-08-27T04:13:22;23.30;;;9.32;;
40449;SDS011;41787;53.570;10.032;2022-08-27T04:15:49;28.20;;;13.65;;
40449;SDS011;41787;53.570;10.032;2022-08-27T04:18:15;26.13;;;12.43;;
40449;SDS011;41787;53.570;10.032;2022-08-27T04:20:42;23.85;;;12.13;;
40449;SDS011;41787;53.570;10.032;2022-08-27T04:23:08;27.50;;;13.57;;
40449;SDS011;41787;53.570;10.032;2022-08-27T04:25:37;26.40;;;12.90;;
40449;SDS011;41787;53.570;10.032;2022-08-27T04:28:03;24.17;;;12.68;;
40449;SDS011;41787;53.570;10.032;2022-08-27T04:30:29;31.70;;;12.80;;
40449;SDS011;41787;53.570;10.032;2022-08-27T04:32:56;18.10;;;11.43;;
40449;SDS011;41787;53.570;10.032;2022-08-27T04:35:22;18.17;;;10.23;;
40449;SDS011;41787;53.570;10.032;2022-08-27T04:37:48;25.67;;;12.05;;
40449;SDS011;41787;53.570;10.032;2022-08-27T04:40:15;21.58;;;10.52;;
40449;SDS011;41787;53.570;10.032;2022-08-27T04:42:41;28.25;;;12.43;;
40449;SDS011;41787;53.570;10.032;2022-08-27T04:45:07;23.20;;;11.68;;
40449;SDS011;41787;53.570;10.032;2022-08-27T04:47:33;18.75;;;8.77;;
40449;SDS011;41787;53.570;10.032;2022-08-27T04:49:59;22.75;;;12.13;;
40449;SDS011;41787;53.570;10.032;2022-08-27T04:52:25;23.13;;;11.65;;
40449;SDS011;41787;53.570;10.032;2022-08-27T04:54:51;23.02;;;11.77;;
40449;SDS011;41787;53.570;10.032;2022-08-27T04:57:17;12.38;;;6.72;;
40449;SDS011;41787;53.570;10.032;2022-08-27T04:59:44;23.40;;;11.30;;
40449;SDS011;41787;53.570;10.032;2022-08-27T05:02:10;18.33;;;11.23;;
40449;SDS011;41787;53.570;10.032;2022-08-27T05:04:37;19.20;;;11.02;;
40449;SDS011;41787;53.570;10.032;2022-08-27T05:07:04;22.58;;;9.98;;
40449;SDS011;41787;53.570;10.032;2022-08-27T05:09:30;19.98;;;10.45;;
40449;SDS011;41787;53.570;10.032;2022-08-27T05:11:56;25.88;;;12.32;;
40449;SDS011;41787;53.570;10.032;2022-08-27T05:14:22;26.08;;;11.20;;
40449;SDS011;41787;53.570;10.032;2022-08-27T05:16:53;27.95;;;11.30;;
40449;SDS011;41787;53.570;10.032;2022-08-27T05:19:19;11.43;;;7.32;;
40449;SDS011;41787;53.570;10.032;2022-08-27T05:21:46;15.50;;;7.45;;
40449;SDS011;41787;53.570;10.032;2022-08-27T05:24:13;23.52;;;13.18;;
40449;SDS011;41787;53.570;10.032;2022-08-27T05:26:39;18.90;;;7.25;;
40449;SDS011;41787;53.570;10.032;2022-08-27T05:29:05;20.52;;;11.48;;
40449;SDS011;41787;53.570;10.032;2022-08-27T05:31:31;21.40;;;10.25;;
40449;SDS011;41787;53.570;10.032;2022-08-27T05:33:58;18.02;;;9.07;;
40449;SDS011;41787;53.570;10.032;2022-08-27T05:36:26;23.33;;;12.65;;
40449;SDS011;41787;53.570;10.032;2022-08-27T05:38:53;19.47;;;9.67;;
40449;SDS011;41787;53.570;10.032;2022-08-27T05:41:20;20.45;;;11.68;;
40449;SDS011;41787;53.570;10.032;2022-08-27T05:43:49;17.33;;;9.20;;
40449;SDS011;41787;53.570;10.032;2022-08-27T05:46:16;19.63;;;11.38;;
40449;SDS011;41787;53.570;10.032;2022-08-27T05:48:42;27.90;;;11.80;;
40449;SDS011;41787;53.570;10.032;2022-08-27T05:51:09;15.10;;;9.07;;
40449;SDS011;41787;53.570;10.032;2022-08-27T05:53:36;22.27;;;12.48;;
40449;SDS011;41787;53.570;10.032;2022-08-27T05:56:02;19.48;;;8.15;;
40449;SDS011;41787;53.570;10.032;2022-08-27T05:58:28;26.33;;;12.20;;
40449;SDS011;41787;53.570;10.032;2022-08-27T06:01:13;25.88;;;13.93;;
40449;SDS011;41787;53.570;10.032;2022-08-27T06:03:39;26.90;;;12.38;;
40449;SDS011;41787;53.570;10.032;2022-08-27T06:06:06;26.77;;;12.30;;
40449;SDS011;41787;53.570;10.032;2022-08-27T06:08:33;27.42;;;13.20;;
40449;SDS011;41787;53.570;10.032;2022-08-27T06:10:59;24.38;;;12.60;;
40449;SDS011;41787;53.570;10.032;2022-08-27T06:13:26;25.67;;;10.63;;
40449;SDS011;41787;53.570;10.032;2022-08-27T06:16:02;30.45;;;14.68;;
40449;SDS011;41787;53.570;10.032;2022-08-27T06:18:28;29.60;;;13.02;;
40449;SDS011;41787;53.570;10.032;2022-08-27T06:20:54;29.08;;;12.23;;
40449;SDS011;41787;53.570;10.032;2022-08-27T06:23:20;12.48;;;6.30;;
40449;SDS011;41787;53.570;10.032;2022-08-27T06:25:46;26.20;;;11.57;;
40449;SDS011;41787;53.570;10.032;2022-08-27T06:28:12;30.00;;;10.23;;
40449;SDS011;41787;53.570;10.032;2022-08-27T06:30:38;25.20;;;12.05;;
40449;SDS011;41787;53.570;10.032;2022-08-27T06:33:04;34.75;;;13.40;;
40449;SDS011;41787;53.570;10.032;2022-08-27T06:35:30;26.15;;;12.63;;
40449;SDS011;41787;53.570;10.032;2022-08-27T06:37:58;25.25;;;12.35;;
40449;SDS011;41787;53.570;10.032;2022-08-27T06:40:24;30.40;;;13.13;;
40449;SDS011;41787;53.570;10.032;2022-08-27T06:42:51;24.60;;;13.05;;
40449;SDS011;41787;53.570;10.032;2022-08-27T06:45:17;29.35;;;11.60;;
40449;SDS011;41787;53.570;10.032;2022-08-27T06:47:43;23.65;;;10.93;;
40449;SDS011;41787;53.570;10.032;2022-08-27T06:50:09;23.48;;;8.82;;
40449;SDS011;41787;53.570;10.032;2022-08-27T06:52:35;24.90;;;10.43;;
40449;SDS011;41787;53.570;10.032;2022-08-27T06:55:01;21.25;;;10.65;;
40449;SDS011;41787;53.570;10.032;2022-08-27T06:57:27;21.90;;;8.85;;
40449;SDS011;41787;53.570;10.032;2022-08-27T06:59:53;21.08;;;9.98;;
40449;SDS011;41787;53.570;10.032;2022-08-27T07:02:19;16.58;;;7.13;;
40449;SDS011;41787;53.570;10.032;2022-08-27T07:04:45;25.70;;;11.05;;
40449;SDS011;41787;53.570;10.032;2022-08-27T07:07:12;22.55;;;8.15;;
40449;SDS011;41787;53.570;10.032;2022-08-27T07:09:38;24.65;;;10.20;;
40449;SDS011;41787;53.570;10.032;2022-08-27T07:12:04;21.02;;;11.18;;
40449;SDS011;41787;53.570;10.032;2022-08-27T07:14:30;19.90;;;10.45;;
40449;SDS011;41787;53.570;10.032;2022-08-27T07:16:56;18.17;;;9.82;;
40449;SDS011;41787;53.570;10.032;2022-08-27T07:19:23;18.98;;;10.00;;
40449;SDS011;41787;53.570;10.032;2022-08-27T07:21:49;17.35;;;9.23;;
40449;SDS011;41787;53.570;10.032;2022-08-27T07:24:15;14.52;;;3.80;;
40449;SDS011;41787;53.570;10.032;2022-08-27T07:26:42;15.45;;;7.25;;
40449;SDS011;41787;53.570;10.032;2022-08-27T07:29:09;15.60;;;6.57;;
40449;SDS011;41787;53.570;10.032;2022-08-27T07:31:35;26.02;;;9.93;;
40449;SDS011;41787;53.570;10.032;2022-08-27T07:34:03;26.98;;;10.93;;
40449;SDS011;41787;53.570;10.032;2022-08-27T07:36:29;19.17;;;8.85;;
40449;SDS011;41787;53.570;10.032;2022-08-27T07:38:55;18.40;;;8.95;;
40449;SDS011;41787;53.570;10.032;2022-08-27T07:41:21;19.65;;;7.68;;
40449;SDS011;41787;53.570;10.032;2022-08-27T07:43:47;16.38;;;8.15;;
40449;SDS011;41787;53.570;10.032;2022-08-27T07:46:32;13.45;;;5.35;;
40449;SDS011;41787;53.570;10.032;2022-08-27T07:48:58;15.73;;;6.72;;
40449;SDS011;41787;53.570;10.032;2022-08-27T07:51:25;24.52;;;10.02;;
40449;SDS011;41787;53.570;10.032;2022-08-27T07:53:51;29.95;;;9.27;;
40449;SDS011;41787;53.570;10.032;2022-08-27T07:56:18;22.58;;;9.50;;
40449;SDS011;41787;53.570;10.032;2022-08-27T07:58:44;20.75;;;8.10;;
40449;SDS011;41787;53.570;10.032;2022-08-27T08:01:10;20.60;;;8.27;;
40449;SDS011;41787;53.570;10.032;2022-08-27T08:03:37;17.38;;;8.48;;
40449;SDS011;41787;53.570;10.032;2022-08-27T08:06:10;21.27;;;8.90;;
40449;SDS011;41787;53.570;10.032;2022-08-27T08:08:36;24.88;;;8.68;;
40449;SDS011;41787;53.570;10.032;2022-08-27T08:11:04;17.90;;;7.88;;
40449;SDS011;41787;53.570;10.032;2022-08-27T08:13:30;19.50;;;8.73;;
40449;SDS011;41787;53.570;10.032;2022-08-27T08:15:56;15.13;;;6.25;;
40449;SDS011;41787;53.570;10.032;2022-08-27T08:18:23;19.65;;;7.28;;
40449;SDS011;41787;53.570;10.032;2022-08-27T08:20:49;13.38;;;6.15;;
40449;SDS011;41787;53.570;10.032;2022-08-27T08:23:15;22.25;;;7.72;;
40449;SDS011;41787;53.570;10.032;2022-08-27T08:25:41;20.88;;;7.72;;
40449;SDS011;41787;53.570;10.032;2022-08-27T08:28:07;19.25;;;5.60;;
40449;SDS011;41787;53.570;10.032;2022-08-27T08:30:35;14.18;;;4.85;;
40449;SDS011;41787;53.570;10.032;2022-08-27T08:33:01;22.98;;;7.25;;
40449;SDS011;41787;53.570;10.032;2022-08-27T08:35:27;22.08;;;8.45;;
40449;SDS011;41787;53.570;10.032;2022-08-27T08:37:53;13.77;;;5.60;;
40449;SDS011;41787;53.570;10.032;2022-08-27T08:40:32;19.45;;;7.75;;
40449;SDS011;41787;53.570;10.032;2022-08-27T08:42:59;20.55;;;8.73;;
40449;SDS011;41787;53.570;10.032;2022-08-27T08:45:30;20.23;;;7.63;;
40449;SDS011;41787;53.570;10.032;2022-08-27T08:48:02;22.40;;;8.40;;
40449;SDS011;41787;53.570;10.032;2022-08-27T08:50:43;20.23;;;7.70;;
40449;SDS011;41787;53.570;10.032;2022-08-27T08:53:18;24.23;;;7.82;;
40449;SDS011;41787;53.570;10.032;2022-08-27T09:00:57;14.05;;;6.75;;
40449;SDS011;41787;53.570;10.032;2022-08-27T09:03:24;14.77;;;6.53;;
40449;SDS011;41787;53.570;10.032;2022-08-27T09:05:55;27.52;;;8.07;;
40449;SDS011;41787;53.570;10.032;2022-08-27T09:08:23;20.98;;;7.35;;
40449;SDS011;41787;53.570;10.032;2022-08-27T09:13:27;15.93;;;6.90;;
40449;SDS011;41787;53.570;10.032;2022-08-27T09:15:57;20.02;;;7.97;;
40449;SDS011;41787;53.570;10.032;2022-08-27T09:18:23;24.27;;;8.43;;
40449;SDS011;41787;53.570;10.032;2022-08-27T09:20:50;11.23;;;4.32;;
40449;SDS011;41787;53.570;10.032;2022-08-27T09:23:28;10.65;;;3.72;;
40449;SDS011;41787;53.570;10.032;2022-08-27T09:25:58;16.80;;;7.35;;
40449;SDS011;41787;53.570;10.032;2022-08-27T09:28:25;16.02;;;6.10;;
40449;SDS011;41787;53.570;10.032;2022-08-27T09:31:11;31.00;;;7.63;;
40449;SDS011;41787;53.570;10.032;2022-08-27T09:33:38;19.73;;;7.05;;
40449;SDS011;41787;53.570;10.032;2022-08-27T09:36:07;17.75;;;6.78;;
40449;SDS011;41787;53.570;10.032;2022-08-27T09:38:33;23.55;;;7.45;;
40449;SDS011;41787;53.570;10.032;2022-08-27T09:41:06;20.00;;;7.25;;
40449;SDS011;41787;53.570;10.032;2022-08-27T09:43:33;15.80;;;5.50;;
40449;SDS011;41787;53.570;10.032;2022-08-27T09:46:04;13.13;;;4.35;;
40449;SDS011;41787;53.570;10.032;2022-08-27T09:48:32;21.90;;;6.05;;
40449;SDS011;41787;53.570;10.032;2022-08-27T09:50:59;17.60;;;7.50;;
40449;SDS011;41787;53.570;10.032;2022-08-27T09:53:30;12.15;;;4.53;;
40449;SDS011;41787;53.570;10.032;2022-08-27T09:56:02;18.65;;;7.05;;
40449;SDS011;41787;53.570;10.032;2022-08-27T09:58:29;19.48;;;6.28;;
40449;SDS011;41787;53.570;10.032;2022-08-27T10:01:00;16.25;;;5.97;;
40449;SDS011;41787;53.570;10.032;2022-08-27T10:03:27;20.25;;;6.50;;
40449;SDS011;41787;53.570;10.032;2022-08-27T10:05:53;19.20;;;6.85;;
40449;SDS011;41787;53.570;10.032;2022-08-27T10:11:09;15.38;;;5.22;;
40449;SDS011;41787;53.570;10.032;2022-08-27T10:13:39;13.32;;;5.80;;
40449;SDS011;41787;53.570;10.032;2022-08-27T10:16:21;21.67;;;6.63;;
40449;SDS011;41787;53.570;10.032;2022-08-27T10:21:18;11.82;;;4.35;;
40449;SDS011;41787;53.570;10.032;2022-08-27T10:26:26;14.20;;;6.28;;
40449;SDS011;41787;53.570;10.032;2022-08-27T10:31:44;16.83;;;6.22;;
40449;SDS011;41787;53.570;10.032;2022-08-27T10:37:03;14.15;;;5.40;;
40449;SDS011;41787;53.570;10.032;2022-08-27T10:39:44;13.38;;;5.78;;
40449;SDS011;41787;53.570;10.032;2022-08-27T10:44:56;17.45;;;6.10;;
40449;SDS011;41787;53.570;10.032;2022-08-27T10:47:35;12.32;;;3.72;;
40449;SDS011;41787;53.570;10.032;2022-08-27T10:52:38;17.20;;;5.65;;
40449;SDS011;41787;53.570;10.032;2022-08-27T10:55:11;14.70;;;5.45;;
40449;SDS011;41787;53.570;10.032;2022-08-27T11:00:24;15.40;;;6.18;;
40449;SDS011;41787;53.570;10.032;2022-08-27T11:02:54;14.32;;;5.10;;
40449;SDS011;41787;53.570;10.032;2022-08-27T11:05:22;14.38;;;4.13;;
40449;SDS011;41787;53.570;10.032;2022-08-27T11:07:55;20.33;;;6.20;;
40449;SDS011;41787;53.570;10.032;2022-08-27T11:10:25;13.52;;;4.93;;
40449;SDS011;41787;53.570;10.032;2022-08-27T11:12:55;12.18;;;4.68;;
40449;SDS011;41787;53.570;10.032;2022-08-27T11:15:26;18.08;;;5.25;;
40449;SDS011;41787;53.570;10.032;2022-08-27T11:20:42;10.85;;;4.80;;
40449;SDS011;41787;53.570;10.032;2022-08-27T11:23:14;14.32;;;3.70;;
40449;SDS011;41787;53.570;10.032;2022-08-27T11:25:54;12.63;;;4.50;;
40449;SDS011;41787;53.570;10.032;2022-08-27T11:28:43;11.63;;;3.40;;
40449;SDS011;41787;53.570;10.032;2022-08-27T11:36:11;9.98;;;3.25;;
40449;SDS011;41787;53.570;10.032;2022-08-27T11:38:44;15.43;;;3.67;;
40449;SDS011;41787;53.570;10.032;2022-08-27T11:41:15;9.45;;;3.45;;
40449;SDS011;41787;53.570;10.032;2022-08-27T11:43:44;10.23;;;3.33;;
40449;SDS011;41787;53.570;10.032;2022-08-27T11:46:19;12.38;;;4.40;;
40449;SDS011;41787;53.570;10.032;2022-08-27T11:48:54;21.25;;;4.72;;
40449;SDS011;41787;53.570;10.032;2022-08-27T11:51:39;19.70;;;4.00;;
40449;SDS011;41787;53.570;10.032;2022-08-27T11:54:07;12.95;;;4.10;;
40449;SDS011;41787;53.570;10.032;2022-08-27T11:56:39;14.23;;;3.78;;
40449;SDS011;41787;53.570;10.032;2022-08-27T12:01:50;13.32;;;4.03;;
40449;SDS011;41787;53.570;10.032;2022-08-27T12:04:20;8.68;;;2.22;;
40449;SDS011;41787;53.570;10.032;2022-08-27T12:06:50;8.70;;;3.10;;
40449;SDS011;41787;53.570;10.032;2022-08-27T12:09:18;14.27;;;3.58;;
40449;SDS011;41787;53.570;10.032;2022-08-27T12:11:48;11.77;;;2.67;;
40449;SDS011;41787;53.570;10.032;2022-08-27T12:14:28;14.15;;;3.10;;
40449;SDS011;41787;53.570;10.032;2022-08-27T12:19:30;7.53;;;2.33;;
40449;SDS011;41787;53.570;10.032;2022-08-27T12:24:47;8.77;;;2.70;;
40449;SDS011;41787;53.570;10.032;2022-08-27T12:27:16;6.63;;;2.25;;
40449;SDS011;41787;53.570;10.032;2022-08-27T12:30:17;8.35;;;1.60;;
40449;SDS011;41787;53.570;10.032;2022-08-27T12:32:45;11.98;;;2.60;;
40449;SDS011;41787;53.570;10.032;2022-08-27T12:35:18;7.53;;;2.00;;
40449;SDS011;41787;53.570;10.032;2022-08-27T12:37:52;9.60;;;2.95;;
40449;SDS011;41787;53.570;10.032;2022-08-27T12:40:25;7.60;;;1.77;;
40449;SDS011;41787;53.570;10.032;2022-08-27T12:43:04;10.13;;;2.80;;
40449;SDS011;41787;53.570;10.032;2022-08-27T12:45:31;11.82;;;2.90;;
40449;SDS011;41787;53.570;10.032;2022-08-27T12:47:57;13.82;;;2.63;;
40449;SDS011;41787;53.570;10.032;2022-08-27T12:50:27;12.48;;;3.03;;
40449;SDS011;41787;53.570;10.032;2022-08-27T12:53:01;11.05;;;2.10;;
40449;SDS011;41787;53.570;10.032;2022-08-27T12:55:32;12.68;;;3.03;;
40449;SDS011;41787;53.570;10.032;2022-08-27T13:00:25;9.05;;;2.17;;
40449;SDS011;41787;53.570;10.032;2022-08-27T13:05:25;13.45;;;2.80;;
40449;SDS011;41787;53.570;10.032;2022-08-27T13:07:52;7.05;;;1.92;;
40449;SDS011;41787;53.570;10.032;2022-08-27T13:10:28;12.43;;;2.75;;
40449;SDS011;41787;53.570;10.032;2022-08-27T13:13:13;9.73;;;2.58;;
40449;SDS011;41787;53.570;10.032;2022-08-27T13:15:41;13.20;;;2.22;;
40449;SDS011;41787;53.570;10.032;2022-08-27T13:18:08;13.93;;;3.75;;
40449;SDS011;41787;53.570;10.032;2022-08-27T13:20:36;10.52;;;2.40;;
40449;SDS011;41787;53.570;10.032;2022-08-27T13:23:03;9.45;;;2.80;;
40449;SDS011;41787;53.570;10.032;2022-08-27T13:25:30;13.02;;;3.03;;
40449;SDS011;41787;53.570;10.032;2022-08-27T13:28:10;10.27;;;2.40;;
40449;SDS011;41787;53.570;10.032;2022-08-27T13:30:37;10.15;;;2.10;;
40449;SDS011;41787;53.570;10.032;2022-08-27T13:33:04;10.52;;;2.70;;
40449;SDS011;41787;53.570;10.032;2022-08-27T13:35:31;9.40;;;2.15;;
40449;SDS011;41787;53.570;10.032;2022-08-27T13:37:57;9.52;;;1.90;;
40449;SDS011;41787;53.570;10.032;2022-08-27T13:40:34;8.23;;;1.80;;
40449;SDS011;41787;53.570;10.032;2022-08-27T13:43:01;11.90;;;2.25;;
40449;SDS011;41787;53.570;10.032;2022-08-27T13:45:28;16.00;;;3.17;;
40449;SDS011;41787;53.570;10.032;2022-08-27T13:47:55;7.85;;;1.75;;
40449;SDS011;41787;53.570;10.032;2022-08-27T13:50:31;7.10;;;1.30;;
40449;SDS011;41787;53.570;10.032;2022-08-27T13:53:31;13.30;;;2.22;;
40449;SDS011;41787;53.570;10.032;2022-08-27T13:56:08;12.05;;;3.10;;
40449;SDS011;41787;53.570;10.032;2022-08-27T13:58:35;9.45;;;2.42;;
40449;SDS011;41787;53.570;10.032;2022-08-27T14:01:09;10.60;;;1.75;;
40449;SDS011;41787;53.570;10.032;2022-08-27T14:03:36;7.35;;;1.50;;
40449;SDS011;41787;53.570;10.032;2022-08-27T14:06:20;9.57;;;2.00;;
40449;SDS011;41787;53.570;10.032;2022-08-27T14:08:46;9.75;;;1.92;;
40449;SDS011;41787;53.570;10.032;2022-08-27T14:11:12;6.93;;;1.42;;
40449;SDS011;41787;53.570;10.032;2022-08-27T14:13:40;8.70;;;1.67;;
40449;SDS011;41787;53.570;10.032;2022-08-27T14:16:27;6.43;;;1.40;;
40449;SDS011;41787;53.570;10.032;2022-08-27T14:18:55;7.72;;;1.95;;
40449;SDS011;41787;53.570;10.032;2022-08-27T14:21:27;7.57;;;1.60;;
40449;SDS011;41787;53.570;10.032;2022-08-27T14:23:53;5.10;;;1.48;;
40449;SDS011;41787;53.570;10.032;2022-08-27T14:26:20;7.30;;;1.83;;
40449;SDS011;41787;53.570;10.032;2022-08-27T14:28:46;8.88;;;1.70;;
40449;SDS011;41787;53.570;10.032;2022-08-27T14:31:12;8.82;;;1.70;;
40449;SDS011;41787;53.570;10.032;2022-08-27T14:33:38;7.20;;;1.48;;
40449;SDS011;41787;53.570;10.032;2022-08-27T14:36:05;8.60;;;1.58;;
40449;SDS011;41787;53.570;10.032;2022-08-27T14:38:31;6.70;;;1.27;;
40449;SDS011;41787;53.570;10.032;2022-08-27T14:40:58;12.88;;;2.42;;
40449;SDS011;41787;53.570;10.032;2022-08-27T14:43:24;10.88;;;1.38;;
40449;SDS011;41787;53.570;10.032;2022-08-27T14:45:50;4.97;;;1.13;;
40449;SDS011;41787;53.570;10.032;2022-08-27T14:48:19;7.13;;;1.83;;
40449;SDS011;41787;53.570;10.032;2022-08-27T14:50:45;7.80;;;1.50;;
40449;SDS011;41787;53.570;10.032;2022-08-27T14:53:12;13.90;;;1.90;;
40449;SDS011;41787;53.570;10.032;2022-08-27T14:55:38;5.68;;;1.05;;
40449;SDS011;41787;53.570;10.032;2022-08-27T14:58:04;6.60;;;1.52;;
40449;SDS011;41787;53.570;10.032;2022-08-27T15:00:29;7.63;;;1.67;;
40449;SDS011;41787;53.570;10.032;2022-08-27T15:02:56;6.40;;;1.38;;
40449;SDS011;41787;53.570;10.032;2022-08-27T15:05:23;4.30;;;0.85;;
40449;SDS011;41787;53.570;10.032;2022-08-27T15:07:49;7.97;;;1.30;;
40449;SDS011;41787;53.570;10.032;2022-08-27T15:10:17;11.88;;;2.00;;
40449;SDS011;41787;53.570;10.032;2022-08-27T15:12:43;7.97;;;1.30;;
40449;SDS011;41787;53.570;10.032;2022-08-27T15:15:09;5.72;;;1.67;;
40449;SDS011;41787;53.570;10.032;2022-08-27T15:17:36;3.38;;;0.80;;
40449;SDS011;41787;53.570;10.032;2022-08-27T15:20:03;7.10;;;1.17;;